createdAt,value
2019-05-12T00:00:48.503Z,0.00
2019-05-12T00:01:48.183Z,0.00
2019-05-12T00:02:48.629Z,0.00
2019-05-12T00:03:48.433Z,0.00
2019-05-12T00:04:48.822Z,0.00
2019-05-12T00:05:48.373Z,0.00
2019-05-12T00:06:48.014Z,0.00
2019-05-12T00:07:48.806Z,0.00
2019-05-12T00:08:48.757Z,0.00
2019-05-12T00:09:48.051Z,0.00
2019-05-12T00:10:48.224Z,0.00
2019-05-12T00:11:48.466Z,0.00
2019-05-12T00:12:48.543Z,0.00
2019-05-12T00:13:47.964Z,0.00
2019-05-12T00:14:48.525Z,0.00
2019-05-12T00:15:47.802Z,0.00
2019-05-12T00:16:49.134Z,0.00
2019-05-12T00:17:48.353Z,0.00
2019-05-12T00:18:48.318Z,0.00
2019-05-12T00:19:48.008Z,0.00
2019-05-12T00:20:47.775Z,0.00
2019-05-12T00:21:48.432Z,0.00
2019-05-12T00:22:48.676Z,0.00
2019-05-12T00:23:47.817Z,0.00
2019-05-12T00:24:47.963Z,0.00
2019-05-12T00:25:48.090Z,0.00
2019-05-12T00:26:47.880Z,0.00
2019-05-12T00:27:48.697Z,0.00
2019-05-12T00:28:48.250Z,0.00
2019-05-12T00:29:48.595Z,0.00
2019-05-12T00:30:48.734Z,0.00
2019-05-12T00:31:47.919Z,0.00
2019-05-12T00:32:47.868Z,0.00
2019-05-12T00:33:48.112Z,0.00
2019-05-12T00:34:48.130Z,0.00
2019-05-12T00:35:48.266Z,0.00
2019-05-12T00:36:48.553Z,0.00
2019-05-12T00:37:48.656Z,0.00
2019-05-12T00:38:48.529Z,0.00
2019-05-12T00:39:47.923Z,0.00
2019-05-12T00:40:48.032Z,0.00
2019-05-12T00:41:48.219Z,0.00
2019-05-12T00:42:48.522Z,0.00
2019-05-12T00:43:48.716Z,0.00
2019-05-12T00:44:47.854Z,0.00
2019-05-12T00:45:48.224Z,0.00
2019-05-12T00:46:48.808Z,0.00
2019-05-12T00:47:48.070Z,0.00
2019-05-12T00:48:48.263Z,0.00
2019-05-12T00:49:48.908Z,0.00
2019-05-12T00:50:48.545Z,0.00
2019-05-12T00:51:48.518Z,0.00
2019-05-12T00:52:48.912Z,0.00
2019-05-12T00:53:47.905Z,0.00
2019-05-12T00:54:48.259Z,0.00
2019-05-12T00:55:47.721Z,0.00
2019-05-12T00:56:48.202Z,0.00
2019-05-12T00:57:48.466Z,0.00
2019-05-12T00:58:48.743Z,0.00
2019-05-12T00:59:47.855Z,0.00
2019-05-12T01:00:48.262Z,0.00
2019-05-12T01:01:48.153Z,0.00
2019-05-12T01:02:48.614Z,0.00
2019-05-12T01:03:48.381Z,0.00
2019-05-12T01:04:48.701Z,0.00
2019-05-12T01:05:48.537Z,0.00
2019-05-12T01:06:48.666Z,0.00
2019-05-12T01:07:48.184Z,0.00
2019-05-12T01:08:48.364Z,0.00
2019-05-12T01:09:49.101Z,0.00
2019-05-12T01:10:47.899Z,0.00
2019-05-12T01:11:48.200Z,0.00
2019-05-12T01:12:48.586Z,0.00
2019-05-12T01:13:48.574Z,0.00
2019-05-12T01:14:47.837Z,0.00
2019-05-12T01:15:48.125Z,0.00
2019-05-12T01:16:48.629Z,0.00
2019-05-12T01:17:47.775Z,0.00
2019-05-12T01:18:47.977Z,0.00
2019-05-12T01:19:48.564Z,0.00
2019-05-12T01:20:47.934Z,0.00
2019-05-12T01:21:48.126Z,0.00
2019-05-12T01:22:50.376Z,0.00
2019-05-12T01:23:56.416Z,0.00
2019-05-12T01:24:48.405Z,0.00
2019-05-12T01:25:47.830Z,0.00
2019-05-12T01:26:47.650Z,0.00
2019-05-12T01:27:48.316Z,0.00
2019-05-12T01:28:48.794Z,0.00
2019-05-12T01:29:48.048Z,0.00
2019-05-12T01:30:47.964Z,0.00
2019-05-12T01:31:48.606Z,0.00
2019-05-12T01:32:48.386Z,0.00
2019-05-12T01:33:48.600Z,0.00
2019-05-12T01:34:48.671Z,0.00
2019-05-12T01:35:48.358Z,0.00
2019-05-12T01:36:48.329Z,0.00
2019-05-12T01:37:48.409Z,0.00
2019-05-12T01:38:48.282Z,0.00
2019-05-12T01:39:49.057Z,0.00
2019-05-12T01:40:47.942Z,0.00
2019-05-12T01:41:48.107Z,0.00
2019-05-12T01:42:48.358Z,0.00
2019-05-12T01:43:48.771Z,0.00
2019-05-12T01:44:48.151Z,0.00
2019-05-12T01:45:48.315Z,0.00
2019-05-12T01:46:48.410Z,0.00
2019-05-12T01:47:48.553Z,0.00
2019-05-12T01:48:48.430Z,0.00
2019-05-12T01:49:48.760Z,0.00
2019-05-12T01:50:47.576Z,0.00
2019-05-12T01:51:47.664Z,0.00
2019-05-12T01:52:47.815Z,0.00
2019-05-12T01:53:48.255Z,0.00
2019-05-12T01:54:48.298Z,0.00
2019-05-12T01:55:48.574Z,0.00
2019-05-12T01:56:48.368Z,0.00
2019-05-12T01:57:48.602Z,0.00
2019-05-12T01:58:48.386Z,0.00
2019-05-12T01:59:48.381Z,0.00
2019-05-12T02:00:48.287Z,0.00
2019-05-12T02:01:48.654Z,0.00
2019-05-12T02:02:48.083Z,0.00
2019-05-12T02:03:48.074Z,0.00
2019-05-12T02:04:48.350Z,0.00
2019-05-12T02:05:48.571Z,0.00
2019-05-12T02:06:48.572Z,0.00
2019-05-12T02:07:47.950Z,0.00
2019-05-12T02:08:47.796Z,0.00
2019-05-12T02:09:48.064Z,0.00
2019-05-12T02:10:48.086Z,0.00
2019-05-12T02:11:48.363Z,0.00
2019-05-12T02:12:48.861Z,0.00
2019-05-12T02:13:48.604Z,0.00
2019-05-12T02:14:48.625Z,0.00
2019-05-12T02:15:48.469Z,0.00
2019-05-12T02:16:47.698Z,0.00
2019-05-12T02:17:48.147Z,0.00
2019-05-12T02:18:48.887Z,0.00
2019-05-12T02:19:48.051Z,0.00
2019-05-12T02:20:48.314Z,0.00
2019-05-12T02:21:48.529Z,0.00
2019-05-12T02:22:47.730Z,0.00
2019-05-12T02:23:47.754Z,0.00
2019-05-12T02:24:47.848Z,0.00
2019-05-12T02:25:48.356Z,0.00
2019-05-12T02:26:48.500Z,0.00
2019-05-12T02:27:47.715Z,0.00
2019-05-12T02:28:48.088Z,0.00
2019-05-12T02:29:48.009Z,0.00
2019-05-12T02:30:49.918Z,0.00
2019-05-12T02:31:49.797Z,0.00
2019-05-12T02:32:52.989Z,0.00
2019-05-12T02:33:47.333Z,0.00
2019-05-12T02:34:46.328Z,0.00
2019-05-12T02:35:46.305Z,0.00
2019-05-12T02:36:46.296Z,0.00
2019-05-12T02:37:46.289Z,0.00
2019-05-12T02:38:46.274Z,0.00
2019-05-12T02:39:46.279Z,0.00
2019-05-12T02:40:46.255Z,0.00
2019-05-12T02:41:46.253Z,0.00
2019-05-12T02:42:46.725Z,0.00
2019-05-12T02:43:46.225Z,0.00
2019-05-12T02:44:46.208Z,0.00
2019-05-12T02:45:46.206Z,0.00
2019-05-12T02:46:46.188Z,0.00
2019-05-12T02:47:46.181Z,0.00
2019-05-12T02:48:46.171Z,0.00
2019-05-12T02:49:46.163Z,0.00
2019-05-12T02:50:46.162Z,4.00
2019-05-12T02:51:46.141Z,4.00
2019-05-12T02:52:46.127Z,4.00
2019-05-12T02:53:46.954Z,0.00
2019-05-12T02:54:55.284Z,4.00
2019-05-12T02:55:47.112Z,4.00
2019-05-12T02:56:46.081Z,4.00
2019-05-12T02:57:46.071Z,4.00
2019-05-12T02:58:46.065Z,4.00
2019-05-12T02:59:46.047Z,8.00
2019-05-12T03:00:46.050Z,8.00
2019-05-12T03:01:46.030Z,12.00
2019-05-12T03:02:46.022Z,8.00
2019-05-12T03:03:46.033Z,12.00
2019-05-12T03:04:45.997Z,12.00
2019-05-12T03:05:45.997Z,12.00
2019-05-12T03:06:45.972Z,16.00
2019-05-12T03:07:45.975Z,16.00
2019-05-12T03:08:45.958Z,20.00
2019-05-12T03:09:45.956Z,20.00
2019-05-12T03:10:45.941Z,20.00
2019-05-12T03:11:45.932Z,24.00
2019-05-12T03:12:45.918Z,24.00
2019-05-12T03:13:45.900Z,28.00
2019-05-12T03:14:45.887Z,28.00
2019-05-12T03:15:45.887Z,32.00
2019-05-12T03:16:45.911Z,32.00
2019-05-12T03:17:45.894Z,36.00
2019-05-12T03:18:45.853Z,40.00
2019-05-12T03:19:45.835Z,40.00
2019-05-12T03:20:45.826Z,44.00
2019-05-12T03:21:45.819Z,48.00
2019-05-12T03:22:45.813Z,48.00
2019-05-12T03:23:45.803Z,52.00
2019-05-12T03:24:45.785Z,56.00
2019-05-12T03:25:45.941Z,60.00
2019-05-12T03:26:45.766Z,64.00
2019-05-12T03:27:45.749Z,68.00
2019-05-12T03:28:45.780Z,72.00
2019-05-12T03:29:45.730Z,76.00
2019-05-12T03:30:48.578Z,80.00
2019-05-12T03:31:48.858Z,88.00
2019-05-12T03:32:47.448Z,92.00
2019-05-12T03:33:52.252Z,96.00
2019-05-12T03:34:47.765Z,104.00
2019-05-12T03:35:52.354Z,112.00
2019-05-12T03:36:51.067Z,120.00
2019-05-12T03:37:46.644Z,124.00
2019-05-12T03:38:45.649Z,132.00
2019-05-12T03:39:45.641Z,140.00
2019-05-12T03:40:45.625Z,148.00
2019-05-12T03:41:45.604Z,156.00
2019-05-12T03:42:45.593Z,164.00
2019-05-12T03:43:45.585Z,176.00
2019-05-12T03:44:45.587Z,184.00
2019-05-12T03:45:45.655Z,192.00
2019-05-12T03:46:45.935Z,200.00
2019-05-12T03:47:45.811Z,208.00
2019-05-12T03:48:45.621Z,220.00
2019-05-12T03:49:45.585Z,232.00
2019-05-12T03:50:46.278Z,244.00
2019-05-12T03:51:45.841Z,256.00
2019-05-12T03:52:45.483Z,272.00
2019-05-12T03:53:45.708Z,288.00
2019-05-12T03:54:45.468Z,300.00
2019-05-12T03:55:47.030Z,320.00
2019-05-12T03:56:45.456Z,340.00
2019-05-12T03:57:45.445Z,356.00
2019-05-12T03:58:45.469Z,380.00
2019-05-12T03:59:45.409Z,400.00
2019-05-12T04:00:45.400Z,424.00
2019-05-12T04:01:45.539Z,452.00
2019-05-12T04:02:45.650Z,484.00
2019-05-12T04:03:45.482Z,512.00
2019-05-12T04:04:45.517Z,540.00
2019-05-12T04:05:45.716Z,568.00
2019-05-12T04:06:45.695Z,596.00
2019-05-12T04:07:45.334Z,628.00
2019-05-12T04:08:45.810Z,656.00
2019-05-12T04:09:45.317Z,684.00
2019-05-12T04:10:45.626Z,712.00
2019-05-12T04:11:45.295Z,748.00
2019-05-12T04:12:45.284Z,784.00
2019-05-12T04:13:45.461Z,812.00
2019-05-12T04:14:45.253Z,848.00
2019-05-12T04:15:45.845Z,880.00
2019-05-12T04:16:45.565Z,908.00
2019-05-12T04:17:45.562Z,932.00
2019-05-12T04:18:45.318Z,944.00
2019-05-12T04:19:45.201Z,964.00
2019-05-12T04:20:45.528Z,976.00
2019-05-12T04:21:45.187Z,992.00
2019-05-12T04:22:45.162Z,1008.00
2019-05-12T04:23:45.152Z,1024.00
2019-05-12T04:24:45.149Z,1040.00
2019-05-12T04:25:52.168Z,1056.00
2019-05-12T04:26:46.153Z,1060.00
2019-05-12T04:27:45.284Z,1072.00
2019-05-12T04:28:45.760Z,1072.00
2019-05-12T04:29:45.094Z,1072.00
2019-05-12T04:30:45.084Z,1068.00
2019-05-12T04:31:45.074Z,1072.00
2019-05-12T04:32:45.455Z,1076.00
2019-05-12T04:33:45.402Z,1084.00
2019-05-12T04:34:45.035Z,1088.00
2019-05-12T04:35:45.400Z,1088.00
2019-05-12T04:36:45.364Z,1100.00
2019-05-12T04:37:45.161Z,1112.00
2019-05-12T04:38:45.222Z,1124.00
2019-05-12T04:39:44.983Z,1152.00
2019-05-12T04:40:45.545Z,1176.00
2019-05-12T04:41:45.046Z,1200.00
2019-05-12T04:42:45.457Z,1224.00
2019-05-12T04:43:44.992Z,1248.00
2019-05-12T04:44:45.030Z,1268.00
2019-05-12T04:45:45.485Z,1296.00
2019-05-12T04:46:45.295Z,1328.00
2019-05-12T04:47:45.222Z,1376.00
2019-05-12T04:48:45.520Z,1428.00
2019-05-12T04:49:45.275Z,1464.00
2019-05-12T04:50:45.323Z,1512.00
2019-05-12T04:51:45.216Z,1544.00
2019-05-12T04:52:44.941Z,1584.00
2019-05-12T04:53:45.074Z,1624.00
2019-05-12T04:54:44.829Z,1676.00
2019-05-12T04:55:45.025Z,1732.00
2019-05-12T04:56:45.061Z,1752.00
2019-05-12T04:57:45.276Z,1804.00
2019-05-12T04:58:45.253Z,1828.00
2019-05-12T04:59:45.225Z,1856.00
2019-05-12T05:00:44.943Z,1860.00
2019-05-12T05:01:45.493Z,1868.00
2019-05-12T05:02:45.689Z,1844.00
2019-05-12T05:03:44.733Z,1848.00
2019-05-12T05:04:44.715Z,1904.00
2019-05-12T05:05:44.899Z,2028.00
2019-05-12T05:06:45.064Z,2048.00
2019-05-12T05:07:45.033Z,2012.00
2019-05-12T05:08:44.677Z,1996.00
2019-05-12T05:09:44.662Z,2052.00
2019-05-12T05:10:44.656Z,2076.00
2019-05-12T05:11:45.317Z,2100.00
2019-05-12T05:12:45.113Z,2100.00
2019-05-12T05:13:44.697Z,2128.00
2019-05-12T05:14:44.755Z,2124.00
2019-05-12T05:15:44.908Z,2108.00
2019-05-12T05:16:45.245Z,2092.00
2019-05-12T05:17:44.590Z,2088.00
2019-05-12T05:18:44.564Z,2100.00
2019-05-12T05:19:44.556Z,2144.00
2019-05-12T05:20:44.542Z,2172.00
2019-05-12T05:21:44.539Z,2236.00
2019-05-12T05:22:44.549Z,2268.00
2019-05-12T05:23:44.510Z,2320.00
2019-05-12T05:24:44.504Z,2384.00
2019-05-12T05:25:44.489Z,2484.00
2019-05-12T05:26:44.479Z,2548.00
2019-05-12T05:27:44.560Z,2584.00
2019-05-12T05:28:44.466Z,2592.00
2019-05-12T05:29:44.450Z,2592.00
2019-05-12T05:30:44.498Z,2552.00
2019-05-12T05:31:44.428Z,2504.00
2019-05-12T05:32:44.645Z,2448.00
2019-05-12T05:33:44.405Z,2460.00
2019-05-12T05:34:46.239Z,2512.00
2019-05-12T05:35:45.391Z,2560.00
2019-05-12T05:36:44.375Z,2568.00
2019-05-12T05:37:44.432Z,2564.00
2019-05-12T05:38:44.370Z,2576.00
2019-05-12T05:39:49.442Z,2548.00
2019-05-12T05:40:45.326Z,2448.00
2019-05-12T05:41:48.867Z,2308.00
2019-05-12T05:42:45.305Z,2192.00
2019-05-12T05:43:48.622Z,2124.00
2019-05-12T05:44:45.290Z,2112.00
2019-05-12T05:45:44.274Z,2120.00
2019-05-12T05:46:49.820Z,2136.00
2019-05-12T05:47:45.256Z,2152.00
2019-05-12T05:48:44.292Z,2200.00
2019-05-12T05:49:44.232Z,2216.00
2019-05-12T05:50:44.222Z,2248.00
2019-05-12T05:51:46.712Z,2288.00
2019-05-12T05:52:45.200Z,2332.00
2019-05-12T05:53:44.418Z,2420.00
2019-05-12T05:54:44.194Z,2564.00
2019-05-12T05:55:44.314Z,2688.00
2019-05-12T05:56:57.611Z,2852.00
2019-05-12T05:57:45.143Z,3000.00
2019-05-12T05:58:46.916Z,3092.00
2019-05-12T05:59:45.129Z,3232.00
2019-05-12T06:00:44.112Z,3412.00
2019-05-12T06:01:49.512Z,3604.00
2019-05-12T06:02:45.101Z,3812.00
2019-05-12T06:03:44.298Z,4000.00
2019-05-12T06:04:45.439Z,4120.00
2019-05-12T06:05:45.068Z,4104.00
2019-05-12T06:06:50.595Z,4064.00
2019-05-12T06:07:45.039Z,4048.00
2019-05-12T06:08:44.476Z,4012.00
2019-05-12T06:09:44.029Z,4024.00
2019-05-12T06:10:44.018Z,3988.00
2019-05-12T06:11:44.004Z,3952.00
2019-05-12T06:12:48.633Z,3920.00
2019-05-12T06:13:44.982Z,3948.00
2019-05-12T06:14:48.783Z,3988.00
2019-05-12T06:15:44.950Z,4072.00
2019-05-12T06:16:43.958Z,4200.00
2019-05-12T06:17:44.037Z,4320.00
2019-05-12T06:18:44.276Z,4444.00
2019-05-12T06:19:43.920Z,4584.00
2019-05-12T06:20:43.949Z,4684.00
2019-05-12T06:21:44.187Z,4744.00
2019-05-12T06:22:43.943Z,4844.00
2019-05-12T06:23:43.880Z,4908.00
2019-05-12T06:24:44.233Z,5052.00
2019-05-12T06:25:49.355Z,5088.00
2019-05-12T06:26:56.740Z,5084.00
2019-05-12T06:27:44.821Z,5132.00
2019-05-12T06:28:44.145Z,5388.00
2019-05-12T06:29:43.839Z,5736.00
2019-05-12T06:30:47.007Z,6148.00
2019-05-12T06:31:44.801Z,6868.00
2019-05-12T06:32:50.085Z,6920.00
2019-05-12T06:33:44.789Z,8104.00
2019-05-12T06:34:43.751Z,7824.00
2019-05-12T06:35:45.376Z,10968.00
2019-05-12T06:36:44.152Z,9588.00
2019-05-12T06:37:44.472Z,8040.00
2019-05-12T06:38:43.707Z,7892.00
2019-05-12T06:39:43.693Z,10248.00
2019-05-12T06:40:45.327Z,12320.00
2019-05-12T06:41:44.387Z,19616.00
2019-05-12T06:42:48.144Z,16128.00
2019-05-12T06:43:45.418Z,15904.00
2019-05-12T06:44:43.842Z,11868.00
2019-05-12T06:45:45.545Z,15552.00
2019-05-12T06:46:44.242Z,12280.00
2019-05-12T06:47:45.279Z,16256.00
2019-05-12T06:48:45.621Z,7552.00
2019-05-12T06:49:44.000Z,9800.00
2019-05-12T06:50:44.216Z,13932.00
2019-05-12T06:51:44.469Z,14192.00
2019-05-12T06:52:48.737Z,10532.00
2019-05-12T06:53:44.542Z,11720.00
2019-05-12T06:54:51.124Z,12480.00
2019-05-12T06:55:44.536Z,12504.00
2019-05-12T06:56:43.635Z,11496.00
2019-05-12T06:57:48.284Z,15232.00
2019-05-12T06:58:44.519Z,19008.00
2019-05-12T06:59:50.985Z,19232.00
2019-05-12T07:00:44.473Z,19808.00
2019-05-12T07:01:44.955Z,19520.00
2019-05-12T07:02:50.995Z,19232.00
2019-05-12T07:03:44.437Z,18400.00
2019-05-12T07:04:47.462Z,20384.00
2019-05-12T07:05:45.280Z,18208.00
2019-05-12T07:06:44.182Z,17888.00
2019-05-12T07:07:46.002Z,20128.00
2019-05-12T07:08:43.951Z,20928.00
2019-05-12T07:09:53.482Z,20224.00
2019-05-12T07:10:51.501Z,20960.00
2019-05-12T07:11:52.923Z,21792.00
2019-05-12T07:12:55.946Z,19456.00
2019-05-12T07:13:44.348Z,18080.00
2019-05-12T07:14:43.786Z,17696.00
2019-05-12T07:15:43.928Z,16928.00
2019-05-12T07:16:44.161Z,19936.00
2019-05-12T07:17:47.697Z,19904.00
2019-05-12T07:18:44.270Z,21824.00
2019-05-12T07:19:43.950Z,23808.00
2019-05-12T07:20:43.638Z,24832.00
2019-05-12T07:21:43.981Z,25696.00
2019-05-12T07:22:45.877Z,25632.00
2019-05-12T07:23:44.541Z,18112.00
2019-05-12T07:24:50.010Z,20160.00
2019-05-12T07:25:44.673Z,21920.00
2019-05-12T07:26:44.227Z,32416.00
2019-05-12T07:27:47.254Z,30944.00
2019-05-12T07:28:44.168Z,28384.00
2019-05-12T07:29:43.595Z,31328.00
2019-05-12T07:30:44.103Z,32736.00
2019-05-12T07:31:44.150Z,36864.00
2019-05-12T07:32:43.397Z,33920.00
2019-05-12T07:33:45.790Z,35616.00
2019-05-12T07:34:43.780Z,35296.00
2019-05-12T07:35:44.430Z,36960.00
2019-05-12T07:36:44.286Z,34144.00
2019-05-12T07:37:43.611Z,40544.00
2019-05-12T07:38:43.458Z,32736.00
2019-05-12T07:39:45.469Z,35328.00
2019-05-12T07:40:44.429Z,37568.00
2019-05-12T07:41:50.986Z,37440.00
2019-05-12T07:42:44.037Z,35328.00
2019-05-12T07:43:44.376Z,32864.00
2019-05-12T07:44:44.105Z,34336.00
2019-05-12T07:45:44.114Z,38752.00
2019-05-12T07:46:45.630Z,43808.00
2019-05-12T07:47:44.955Z,43616.00
2019-05-12T07:48:49.011Z,41280.00
2019-05-12T07:49:44.203Z,43072.00
2019-05-12T07:50:43.384Z,44992.00
2019-05-12T07:51:44.658Z,44576.00
2019-05-12T07:52:44.181Z,41792.00
2019-05-12T07:53:47.002Z,40992.00
2019-05-12T07:54:44.430Z,45600.00
2019-05-12T07:55:45.382Z,49408.00
2019-05-12T07:56:44.362Z,48800.00
2019-05-12T07:57:52.877Z,48448.00
2019-05-12T07:58:47.436Z,47072.00
2019-05-12T07:59:43.909Z,45760.00
2019-05-12T08:00:44.259Z,51936.00
2019-05-12T08:01:50.187Z,58976.00
2019-05-12T08:02:44.423Z,61344.00
2019-05-12T08:03:43.670Z,59456.00
2019-05-12T08:04:43.999Z,48960.00
2019-05-12T08:05:43.928Z,50912.00
2019-05-12T08:06:46.565Z,58816.00
2019-05-12T08:07:44.500Z,41952.00
2019-05-12T08:08:50.371Z,49888.00
2019-05-12T08:09:43.737Z,49408.00
2019-05-12T08:10:44.330Z,45632.00
2019-05-12T08:11:43.405Z,60992.00
2019-05-12T08:12:44.485Z,59232.00
2019-05-12T08:13:43.831Z,58944.00
2019-05-12T08:14:43.968Z,53184.00
2019-05-12T08:15:45.714Z,62496.00
2019-05-12T08:16:43.855Z,57984.00
2019-05-12T08:17:44.118Z,47232.00
2019-05-12T08:18:44.453Z,54432.00
2019-05-12T08:19:44.342Z,58560.00
2019-05-12T08:20:43.541Z,54880.00
2019-05-12T08:21:48.618Z,60000.00
2019-05-12T08:22:43.894Z,61184.00
2019-05-12T08:23:44.449Z,63488.00
2019-05-12T08:24:49.617Z,62016.00
2019-05-12T08:25:43.634Z,55424.00
2019-05-12T08:26:43.525Z,52576.00
2019-05-12T08:27:45.153Z,45344.00
2019-05-12T08:28:44.132Z,54144.00
2019-05-12T08:29:43.279Z,58912.00
2019-05-12T08:30:49.838Z,56992.00
2019-05-12T08:31:44.077Z,55968.00
2019-05-12T08:32:44.310Z,51136.00
2019-05-12T08:33:43.668Z,49536.00
2019-05-12T08:34:43.721Z,50144.00
2019-05-12T08:35:43.839Z,50624.00
2019-05-12T08:36:44.968Z,52000.00
2019-05-12T08:37:44.117Z,55520.00
2019-05-12T08:38:44.390Z,51552.00
2019-05-12T08:39:44.252Z,51328.00
2019-05-12T08:40:48.823Z,50272.00
2019-05-12T08:41:44.441Z,47136.00
2019-05-12T08:42:43.626Z,53536.00
2019-05-12T08:43:47.203Z,55296.00
2019-05-12T08:44:43.974Z,59968.00
2019-05-12T08:45:44.407Z,58592.00
2019-05-12T08:46:51.201Z,55008.00
2019-05-12T08:47:44.052Z,53472.00
2019-05-12T08:48:44.507Z,58944.00
2019-05-12T08:49:51.079Z,60320.00
2019-05-12T08:50:46.001Z,64192.00
2019-05-12T08:51:44.288Z,63136.00
2019-05-12T08:52:44.180Z,67552.00
2019-05-12T08:53:43.969Z,61120.00
2019-05-12T08:54:45.381Z,59648.00
2019-05-12T08:55:43.668Z,55104.00
2019-05-12T08:56:43.654Z,45248.00
2019-05-12T08:57:48.980Z,46400.00
2019-05-12T08:58:48.341Z,54912.00
2019-05-12T08:59:44.156Z,59264.00
2019-05-12T09:00:46.438Z,68768.00
2019-05-12T09:01:43.821Z,67040.00
2019-05-12T09:02:46.135Z,67584.00
2019-05-12T09:03:44.315Z,60960.00
2019-05-12T09:04:43.089Z,63456.00
2019-05-12T09:05:44.581Z,65312.00
2019-05-12T09:06:43.454Z,64032.00
2019-05-12T09:07:43.560Z,59360.00
2019-05-12T09:08:45.130Z,51264.00
2019-05-12T09:09:43.964Z,57632.00
2019-05-12T09:10:44.938Z,55296.00
2019-05-12T09:11:44.053Z,50848.00
2019-05-12T09:12:44.099Z,48192.00
2019-05-12T09:13:43.443Z,47776.00
2019-05-12T09:14:46.106Z,47552.00
2019-05-12T09:15:43.851Z,50752.00
2019-05-12T09:16:44.033Z,60448.00
2019-05-12T09:17:48.963Z,57824.00
2019-05-12T09:18:43.542Z,64512.00
2019-05-12T09:19:43.591Z,69248.00
2019-05-12T09:20:48.850Z,67520.00
2019-05-12T09:21:44.207Z,59168.00
2019-05-12T09:22:43.230Z,57728.00
2019-05-12T09:23:45.362Z,56640.00
2019-05-12T09:24:43.987Z,59040.00
2019-05-12T09:25:45.328Z,59616.00
2019-05-12T09:26:43.352Z,63200.00
2019-05-12T09:27:45.641Z,64064.00
2019-05-12T09:28:49.899Z,70336.00
2019-05-12T09:29:43.580Z,73216.00
2019-05-12T09:30:45.915Z,80672.00
2019-05-12T09:31:44.061Z,83808.00
2019-05-12T09:32:48.631Z,87040.00
2019-05-12T09:33:44.574Z,91040.00
2019-05-12T09:34:46.911Z,89408.00
2019-05-12T09:35:43.745Z,85440.00
2019-05-12T09:36:43.782Z,83040.00
2019-05-12T09:37:43.964Z,88576.00
2019-05-12T09:38:43.868Z,92192.00
2019-05-12T09:39:43.584Z,87616.00
2019-05-12T09:40:43.812Z,84896.00
2019-05-12T09:41:46.461Z,84512.00
2019-05-12T09:42:44.088Z,78272.00
2019-05-12T09:43:46.381Z,75552.00
2019-05-12T09:44:43.896Z,81280.00
2019-05-12T09:45:49.761Z,78016.00
2019-05-12T09:46:44.067Z,77120.00
2019-05-12T09:47:43.667Z,77280.00
2019-05-12T09:48:46.916Z,84288.00
2019-05-12T09:49:44.433Z,88864.00
2019-05-12T09:50:44.192Z,87744.00
2019-05-12T09:51:45.696Z,82976.00
2019-05-12T09:52:43.916Z,90400.00
2019-05-12T09:53:42.911Z,94720.00
2019-05-12T09:54:44.446Z,93408.00
2019-05-12T09:55:43.628Z,82496.00
2019-05-12T09:56:43.989Z,81856.00
2019-05-12T09:57:43.008Z,88480.00
2019-05-12T09:58:43.639Z,90976.00
2019-05-12T09:59:45.952Z,94624.00
2019-05-12T10:00:43.445Z,96832.00
2019-05-12T10:01:45.728Z,93152.00
2019-05-12T10:02:43.640Z,92960.00
2019-05-12T10:03:43.739Z,92160.00
2019-05-12T10:04:43.662Z,90496.00
2019-05-12T10:05:41.562Z,90976.00
2019-05-12T10:06:41.519Z,85536.00
2019-05-12T10:07:41.512Z,86304.00
2019-05-12T10:08:43.412Z,92864.00
2019-05-12T10:09:41.498Z,101440.00
2019-05-12T10:10:44.619Z,102432.00
2019-05-12T10:11:44.746Z,94144.00
2019-05-12T10:12:46.337Z,89216.00
2019-05-12T10:13:44.782Z,87360.00
2019-05-12T10:14:45.988Z,89152.00
2019-05-12T10:15:42.778Z,96800.00
2019-05-12T10:16:45.550Z,99744.00
2019-05-12T10:17:43.415Z,66400.00
2019-05-12T10:18:43.121Z,107328.00
2019-05-12T10:19:43.398Z,100096.00
2019-05-12T10:20:41.380Z,99456.00
2019-05-12T10:21:41.378Z,100608.00
2019-05-12T10:22:43.559Z,100160.00
2019-05-12T10:23:43.516Z,102240.00
2019-05-12T10:24:52.115Z,100960.00
2019-05-12T10:25:44.662Z,98080.00
2019-05-12T10:26:47.265Z,94464.00
2019-05-12T10:27:44.291Z,101984.00
2019-05-12T10:28:43.724Z,103360.00
2019-05-12T10:29:43.714Z,102816.00
2019-05-12T10:30:41.278Z,104448.00
2019-05-12T10:31:41.275Z,104768.00
2019-05-12T10:32:43.476Z,108256.00
2019-05-12T10:33:43.233Z,106720.00
2019-05-12T10:34:41.243Z,100672.00
2019-05-12T10:35:43.690Z,105664.00
2019-05-12T10:36:44.920Z,108384.00
2019-05-12T10:37:43.668Z,109728.00
2019-05-12T10:38:43.267Z,106592.00
2019-05-12T10:39:41.193Z,101216.00
2019-05-12T10:40:41.185Z,101568.00
2019-05-12T10:41:43.207Z,99200.00
2019-05-12T10:42:46.205Z,103424.00
2019-05-12T10:43:43.319Z,97248.00
2019-05-12T10:44:41.148Z,92352.00
2019-05-12T10:45:41.128Z,86592.00
2019-05-12T10:46:42.545Z,106176.00
2019-05-12T10:47:41.116Z,106976.00
2019-05-12T10:48:44.164Z,106368.00
2019-05-12T10:49:41.095Z,105888.00
2019-05-12T10:50:41.101Z,102848.00
2019-05-12T10:51:43.625Z,92608.00
2019-05-12T10:52:41.129Z,87072.00
2019-05-12T10:53:43.162Z,85792.00
2019-05-12T10:54:43.328Z,89536.00
2019-05-12T10:55:41.051Z,102592.00
2019-05-12T10:56:43.663Z,104352.00
2019-05-12T10:57:41.010Z,103328.00
2019-05-12T10:58:41.106Z,95456.00
2019-05-12T10:59:45.181Z,77600.00
2019-05-12T11:00:44.194Z,91360.00
2019-05-12T11:01:47.320Z,88256.00
2019-05-12T11:02:41.965Z,86880.00
2019-05-12T11:03:42.925Z,90880.00
2019-05-12T11:04:44.039Z,87104.00
2019-05-12T11:05:40.935Z,81024.00
2019-05-12T11:06:46.879Z,76160.00
2019-05-12T11:07:43.569Z,78240.00
2019-05-12T11:08:41.273Z,81696.00
2019-05-12T11:09:43.562Z,93632.00
2019-05-12T11:10:40.883Z,99104.00
2019-05-12T11:11:43.602Z,96800.00
2019-05-12T11:12:44.023Z,82048.00
2019-05-12T11:13:48.306Z,74752.00
2019-05-12T11:14:43.900Z,76864.00
2019-05-12T11:15:46.116Z,71872.00
2019-05-12T11:16:44.439Z,80928.00
2019-05-12T11:17:46.049Z,89248.00
2019-05-12T11:18:43.672Z,91936.00
2019-05-12T11:19:47.263Z,91680.00
2019-05-12T11:20:41.783Z,99456.00
2019-05-12T11:21:40.769Z,95904.00
2019-05-12T11:22:40.760Z,94496.00
2019-05-12T11:23:40.756Z,102592.00
2019-05-12T11:24:40.773Z,93664.00
2019-05-12T11:25:40.736Z,92704.00
2019-05-12T11:26:43.098Z,93024.00
2019-05-12T11:27:40.713Z,60832.00
2019-05-12T11:28:40.702Z,83872.00
2019-05-12T11:29:45.970Z,77632.00
2019-05-12T11:30:43.680Z,68064.00
2019-05-12T11:31:40.673Z,78080.00
2019-05-12T11:32:40.657Z,84960.00
2019-05-12T11:33:40.656Z,96640.00
2019-05-12T11:34:40.642Z,105600.00
2019-05-12T11:35:40.642Z,109888.00
2019-05-12T11:36:40.618Z,108576.00
2019-05-12T11:37:40.619Z,105344.00
2019-05-12T11:38:40.601Z,104832.00
2019-05-12T11:39:46.929Z,97696.00
2019-05-12T11:40:43.586Z,92192.00
2019-05-12T11:41:40.589Z,77728.00
2019-05-12T11:42:40.564Z,57760.00
2019-05-12T11:43:40.555Z,36896.00
2019-05-12T11:44:40.542Z,23520.00
2019-05-12T11:45:40.531Z,16416.00
2019-05-12T11:46:40.537Z,14560.00
2019-05-12T11:47:40.512Z,13784.00
2019-05-12T11:48:45.574Z,13264.00
2019-05-12T11:49:43.725Z,12604.00
2019-05-12T11:50:46.480Z,12164.00
2019-05-12T11:51:41.487Z,11808.00
2019-05-12T11:52:40.463Z,11668.00
2019-05-12T11:53:40.459Z,11360.00
2019-05-12T11:54:41.222Z,11212.00
2019-05-12T11:55:43.553Z,10904.00
2019-05-12T11:56:45.730Z,10840.00
2019-05-12T11:57:43.647Z,10604.00
2019-05-12T11:58:41.318Z,10460.00
2019-05-12T11:59:43.429Z,10532.00
2019-05-12T12:00:41.381Z,10224.00
2019-05-12T12:01:45.583Z,12408.00
2019-05-12T12:02:43.620Z,12928.00
2019-05-12T12:03:40.361Z,10368.00
2019-05-12T12:04:40.343Z,9676.00
2019-05-12T12:05:40.335Z,9988.00
2019-05-12T12:06:40.333Z,9588.00
2019-05-12T12:07:49.081Z,9920.00
2019-05-12T12:08:41.310Z,9272.00
2019-05-12T12:09:40.296Z,9224.00
2019-05-12T12:10:40.384Z,9268.00
2019-05-12T12:11:40.290Z,9020.00
2019-05-12T12:12:45.273Z,9036.00
2019-05-12T12:13:41.260Z,9108.00
2019-05-12T12:14:45.042Z,9224.00